sensor_id;sensor_type;location;lat;lon;timestamp;P1;durP1;ratioP1;P2;durP2;ratioP2
31206;SDS011;17834;52.992;8.856;2023-12-28T00:02:12;5.18;;;1.85;;
31206;SDS011;17834;52.992;8.856;2023-12-28T00:04:38;4.70;;;1.83;;
31206;SDS011;17834;52.992;8.856;2023-12-28T00:07:04;2.95;;;1.67;;
31206;SDS011;17834;52.992;8.856;2023-12-28T00:09:29;6.95;;;2.10;;
31206;SDS011;17834;52.992;8.856;2023-12-28T00:11:55;2.70;;;1.75;;
31206;SDS011;17834;52.992;8.856;2023-12-28T00:14:20;3.10;;;1.70;;
31206;SDS011;17834;52.992;8.856;2023-12-28T00:16:46;3.63;;;1.85;;
31206;SDS011;17834;52.992;8.856;2023-12-28T00:19:11;3.30;;;1.65;;
31206;SDS011;17834;52.992;8.856;2023-12-28T00:21:37;4.20;;;1.80;;
31206;SDS011;17834;52.992;8.856;2023-12-28T00:24:02;6.50;;;1.80;;
31206;SDS011;17834;52.992;8.856;2023-12-28T00:26:28;4.60;;;1.77;;
31206;SDS011;17834;52.992;8.856;2023-12-28T00:28:53;3.42;;;1.60;;
31206;SDS011;17834;52.992;8.856;2023-12-28T00:31:19;6.30;;;1.90;;
31206;SDS011;17834;52.992;8.856;2023-12-28T00:33:44;4.30;;;2.22;;
31206;SDS011;17834;52.992;8.856;2023-12-28T00:36:10;4.07;;;1.90;;
31206;SDS011;17834;52.992;8.856;2023-12-28T00:38:35;4.85;;;2.20;;
31206;SDS011;17834;52.992;8.856;2023-12-28T00:41:01;4.05;;;1.98;;
31206;SDS011;17834;52.992;8.856;2023-12-28T00:43:26;4.07;;;2.00;;
31206;SDS011;17834;52.992;8.856;2023-12-28T00:45:52;5.78;;;2.17;;
31206;SDS011;17834;52.992;8.856;2023-12-28T00:48:17;7.90;;;2.50;;
31206;SDS011;17834;52.992;8.856;2023-12-28T00:50:43;3.08;;;1.80;;
31206;SDS011;17834;52.992;8.856;2023-12-28T00:53:08;4.20;;;2.00;;
31206;SDS011;17834;52.992;8.856;2023-12-28T00:55:34;3.90;;;2.13;;
31206;SDS011;17834;52.992;8.856;2023-12-28T00:57:59;4.38;;;2.00;;
31206;SDS011;17834;52.992;8.856;2023-12-28T01:00:25;5.57;;;2.88;;
31206;SDS011;17834;52.992;8.856;2023-12-28T01:02:50;3.83;;;1.85;;
31206;SDS011;17834;52.992;8.856;2023-12-28T01:05:16;5.05;;;1.88;;
31206;SDS011;17834;52.992;8.856;2023-12-28T01:07:42;5.18;;;2.05;;
31206;SDS011;17834;52.992;8.856;2023-12-28T01:10:07;3.80;;;1.85;;
31206;SDS011;17834;52.992;8.856;2023-12-28T01:12:33;4.03;;;2.10;;
31206;SDS011;17834;52.992;8.856;2023-12-28T01:14:59;4.10;;;1.92;;
31206;SDS011;17834;52.992;8.856;2023-12-28T01:17:24;5.30;;;1.95;;
31206;SDS011;17834;52.992;8.856;2023-12-28T01:19:50;4.40;;;2.22;;
31206;SDS011;17834;52.992;8.856;2023-12-28T01:22:15;4.93;;;1.95;;
31206;SDS011;17834;52.992;8.856;2023-12-28T01:24:41;5.72;;;2.47;;
31206;SDS011;17834;52.992;8.856;2023-12-28T01:27:06;4.35;;;2.22;;
31206;SDS011;17834;52.992;8.856;2023-12-28T01:29:32;3.08;;;1.80;;
31206;SDS011;17834;52.992;8.856;2023-12-28T01:31:59;7.35;;;2.92;;
31206;SDS011;17834;52.992;8.856;2023-12-28T01:34:24;5.95;;;2.47;;
31206;SDS011;17834;52.992;8.856;2023-12-28T01:36:50;3.85;;;2.05;;
31206;SDS011;17834;52.992;8.856;2023-12-28T01:39:15;3.30;;;1.92;;
31206;SDS011;17834;52.992;8.856;2023-12-28T01:41:43;4.57;;;2.08;;
31206;SDS011;17834;52.992;8.856;2023-12-28T01:44:10;5.20;;;2.35;;
31206;SDS011;17834;52.992;8.856;2023-12-28T01:46:36;3.15;;;1.83;;
31206;SDS011;17834;52.992;8.856;2023-12-28T01:49:01;4.75;;;2.30;;
31206;SDS011;17834;52.992;8.856;2023-12-28T01:51:28;4.85;;;2.25;;
31206;SDS011;17834;52.992;8.856;2023-12-28T01:53:54;4.78;;;2.15;;
31206;SDS011;17834;52.992;8.856;2023-12-28T01:56:20;3.63;;;2.13;;
31206;SDS011;17834;52.992;8.856;2023-12-28T01:58:46;4.85;;;2.25;;
31206;SDS011;17834;52.992;8.856;2023-12-28T02:01:14;4.55;;;2.35;;
31206;SDS011;17834;52.992;8.856;2023-12-28T02:03:40;3.22;;;1.85;;
31206;SDS011;17834;52.992;8.856;2023-12-28T02:06:06;4.88;;;2.45;;
31206;SDS011;17834;52.992;8.856;2023-12-28T02:08:32;4.85;;;2.60;;
31206;SDS011;17834;52.992;8.856;2023-12-28T02:10:58;5.15;;;2.38;;
31206;SDS011;17834;52.992;8.856;2023-12-28T02:13:24;4.95;;;2.28;;
31206;SDS011;17834;52.992;8.856;2023-12-28T02:15:51;8.93;;;3.15;;
31206;SDS011;17834;52.992;8.856;2023-12-28T02:18:26;5.93;;;2.60;;
31206;SDS011;17834;52.992;8.856;2023-12-28T02:20:57;12.15;;;3.55;;
31206;SDS011;17834;52.992;8.856;2023-12-28T02:23:23;5.93;;;2.30;;
31206;SDS011;17834;52.992;8.856;2023-12-28T02:25:49;6.15;;;2.63;;
31206;SDS011;17834;52.992;8.856;2023-12-28T02:28:14;6.55;;;2.72;;
31206;SDS011;17834;52.992;8.856;2023-12-28T02:30:40;6.25;;;2.45;;
31206;SDS011;17834;52.992;8.856;2023-12-28T02:36:01;4.57;;;2.45;;
31206;SDS011;17834;52.992;8.856;2023-12-28T02:38:29;7.18;;;2.80;;
31206;SDS011;17834;52.992;8.856;2023-12-28T02:40:55;3.53;;;2.20;;
31206;SDS011;17834;52.992;8.856;2023-12-28T02:43:22;7.22;;;2.60;;
31206;SDS011;17834;52.992;8.856;2023-12-28T02:45:48;5.97;;;3.00;;
31206;SDS011;17834;52.992;8.856;2023-12-28T02:48:13;3.50;;;2.22;;
31206;SDS011;17834;52.992;8.856;2023-12-28T02:50:39;4.90;;;2.30;;
31206;SDS011;17834;52.992;8.856;2023-12-28T02:53:04;5.32;;;2.78;;
31206;SDS011;17834;52.992;8.856;2023-12-28T02:55:30;4.15;;;2.30;;
31206;SDS011;17834;52.992;8.856;2023-12-28T02:57:56;10.55;;;2.72;;
31206;SDS011;17834;52.992;8.856;2023-12-28T03:00:25;6.15;;;2.70;;
31206;SDS011;17834;52.992;8.856;2023-12-28T03:02:51;4.90;;;2.72;;
31206;SDS011;17834;52.992;8.856;2023-12-28T03:05:16;5.38;;;2.45;;
31206;SDS011;17834;52.992;8.856;2023-12-28T03:07:43;4.20;;;2.47;;
31206;SDS011;17834;52.992;8.856;2023-12-28T03:10:08;4.03;;;2.10;;
31206;SDS011;17834;52.992;8.856;2023-12-28T03:12:35;4.82;;;2.55;;
31206;SDS011;17834;52.992;8.856;2023-12-28T03:15:01;3.92;;;2.30;;
31206;SDS011;17834;52.992;8.856;2023-12-28T03:17:27;7.72;;;2.83;;
31206;SDS011;17834;52.992;8.856;2023-12-28T03:19:53;5.43;;;2.30;;
31206;SDS011;17834;52.992;8.856;2023-12-28T03:22:19;4.55;;;2.33;;
31206;SDS011;17834;52.992;8.856;2023-12-28T03:24:46;8.32;;;2.63;;
31206;SDS011;17834;52.992;8.856;2023-12-28T03:27:11;6.30;;;2.58;;
31206;SDS011;17834;52.992;8.856;2023-12-28T03:29:37;6.10;;;2.58;;
31206;SDS011;17834;52.992;8.856;2023-12-28T03:32:03;7.28;;;3.35;;
31206;SDS011;17834;52.992;8.856;2023-12-28T03:34:28;4.95;;;2.90;;
31206;SDS011;17834;52.992;8.856;2023-12-28T03:36:55;4.70;;;2.70;;
31206;SDS011;17834;52.992;8.856;2023-12-28T03:39:22;6.25;;;2.47;;
31206;SDS011;17834;52.992;8.856;2023-12-28T03:41:48;5.35;;;2.75;;
31206;SDS011;17834;52.992;8.856;2023-12-28T03:44:14;5.15;;;2.95;;
31206;SDS011;17834;52.992;8.856;2023-12-28T03:46:40;5.25;;;2.40;;
31206;SDS011;17834;52.992;8.856;2023-12-28T03:49:05;6.03;;;2.55;;
31206;SDS011;17834;52.992;8.856;2023-12-28T03:51:31;6.57;;;2.67;;
31206;SDS011;17834;52.992;8.856;2023-12-28T03:53:56;3.95;;;2.20;;
31206;SDS011;17834;52.992;8.856;2023-12-28T03:56:22;4.30;;;2.63;;
31206;SDS011;17834;52.992;8.856;2023-12-28T03:58:49;6.90;;;2.90;;
31206;SDS011;17834;52.992;8.856;2023-12-28T04:01:18;6.90;;;3.92;;
31206;SDS011;17834;52.992;8.856;2023-12-28T04:03:45;5.03;;;2.63;;
31206;SDS011;17834;52.992;8.856;2023-12-28T04:06:11;5.10;;;2.70;;
31206;SDS011;17834;52.992;8.856;2023-12-28T04:08:37;5.47;;;2.75;;
31206;SDS011;17834;52.992;8.856;2023-12-28T04:11:03;7.82;;;3.08;;
31206;SDS011;17834;52.992;8.856;2023-12-28T04:13:29;6.18;;;3.28;;
31206;SDS011;17834;52.992;8.856;2023-12-28T04:15:54;5.85;;;3.17;;
31206;SDS011;17834;52.992;8.856;2023-12-28T04:18:20;7.68;;;3.67;;
31206;SDS011;17834;52.992;8.856;2023-12-28T04:20:45;6.00;;;2.97;;
31206;SDS011;17834;52.992;8.856;2023-12-28T04:23:11;6.03;;;2.80;;
31206;SDS011;17834;52.992;8.856;2023-12-28T04:25:36;10.75;;;3.05;;
31206;SDS011;17834;52.992;8.856;2023-12-28T04:28:02;7.00;;;3.05;;
31206;SDS011;17834;52.992;8.856;2023-12-28T04:30:27;5.93;;;2.70;;
31206;SDS011;17834;52.992;8.856;2023-12-28T04:32:53;4.40;;;2.78;;
31206;SDS011;17834;52.992;8.856;2023-12-28T04:35:18;8.48;;;3.10;;
31206;SDS011;17834;52.992;8.856;2023-12-28T04:37:44;5.20;;;3.13;;
31206;SDS011;17834;52.992;8.856;2023-12-28T04:40:09;6.18;;;2.45;;
31206;SDS011;17834;52.992;8.856;2023-12-28T04:42:35;9.73;;;2.88;;
31206;SDS011;17834;52.992;8.856;2023-12-28T04:45:01;4.90;;;3.03;;
31206;SDS011;17834;52.992;8.856;2023-12-28T04:47:26;7.78;;;3.10;;
31206;SDS011;17834;52.992;8.856;2023-12-28T04:49:52;6.22;;;3.00;;
31206;SDS011;17834;52.992;8.856;2023-12-28T04:52:18;5.65;;;2.88;;
31206;SDS011;17834;52.992;8.856;2023-12-28T04:54:43;5.63;;;3.03;;
31206;SDS011;17834;52.992;8.856;2023-12-28T04:57:09;6.70;;;3.20;;
31206;SDS011;17834;52.992;8.856;2023-12-28T04:59:40;5.45;;;3.05;;
31206;SDS011;17834;52.992;8.856;2023-12-28T05:02:06;5.97;;;2.78;;
31206;SDS011;17834;52.992;8.856;2023-12-28T05:04:32;4.93;;;2.83;;
31206;SDS011;17834;52.992;8.856;2023-12-28T05:06:58;9.13;;;4.22;;
31206;SDS011;17834;52.992;8.856;2023-12-28T05:09:23;5.57;;;2.83;;
31206;SDS011;17834;52.992;8.856;2023-12-28T05:11:49;5.60;;;3.47;;
31206;SDS011;17834;52.992;8.856;2023-12-28T05:14:14;6.95;;;3.60;;
31206;SDS011;17834;52.992;8.856;2023-12-28T05:16:40;7.53;;;3.42;;
31206;SDS011;17834;52.992;8.856;2023-12-28T05:19:05;6.88;;;3.30;;
31206;SDS011;17834;52.992;8.856;2023-12-28T05:21:31;9.30;;;3.28;;
31206;SDS011;17834;52.992;8.856;2023-12-28T05:23:56;5.95;;;3.08;;
31206;SDS011;17834;52.992;8.856;2023-12-28T05:26:22;5.93;;;3.00;;
31206;SDS011;17834;52.992;8.856;2023-12-28T05:28:49;5.70;;;3.20;;
31206;SDS011;17834;52.992;8.856;2023-12-28T05:31:14;5.60;;;2.75;;
31206;SDS011;17834;52.992;8.856;2023-12-28T05:33:40;8.20;;;3.33;;
31206;SDS011;17834;52.992;8.856;2023-12-28T05:36:05;13.07;;;3.83;;
31206;SDS011;17834;52.992;8.856;2023-12-28T05:38:31;8.02;;;3.75;;
31206;SDS011;17834;52.992;8.856;2023-12-28T05:40:57;5.68;;;2.97;;
31206;SDS011;17834;52.992;8.856;2023-12-28T05:43:22;14.60;;;4.60;;
31206;SDS011;17834;52.992;8.856;2023-12-28T05:45:48;8.27;;;3.20;;
31206;SDS011;17834;52.992;8.856;2023-12-28T05:48:13;9.25;;;3.50;;
31206;SDS011;17834;52.992;8.856;2023-12-28T05:50:39;8.48;;;3.63;;
31206;SDS011;17834;52.992;8.856;2023-12-28T05:53:05;8.05;;;3.13;;
31206;SDS011;17834;52.992;8.856;2023-12-28T05:55:31;6.05;;;3.10;;
31206;SDS011;17834;52.992;8.856;2023-12-28T05:57:56;6.07;;;2.60;;
31206;SDS011;17834;52.992;8.856;2023-12-28T06:00:22;6.03;;;2.90;;
31206;SDS011;17834;52.992;8.856;2023-12-28T06:02:47;7.60;;;2.78;;
31206;SDS011;17834;52.992;8.856;2023-12-28T06:05:16;6.07;;;3.40;;
31206;SDS011;17834;52.992;8.856;2023-12-28T06:07:42;6.43;;;3.50;;
31206;SDS011;17834;52.992;8.856;2023-12-28T06:10:08;6.10;;;3.13;;
31206;SDS011;17834;52.992;8.856;2023-12-28T06:12:34;7.65;;;2.90;;
31206;SDS011;17834;52.992;8.856;2023-12-28T06:15:00;7.55;;;3.35;;
31206;SDS011;17834;52.992;8.856;2023-12-28T06:17:26;9.25;;;3.40;;
31206;SDS011;17834;52.992;8.856;2023-12-28T06:19:51;9.15;;;2.92;;
31206;SDS011;17834;52.992;8.856;2023-12-28T06:22:17;7.75;;;3.38;;
31206;SDS011;17834;52.992;8.856;2023-12-28T06:24:43;11.10;;;3.00;;
31206;SDS011;17834;52.992;8.856;2023-12-28T06:27:08;6.80;;;2.97;;
31206;SDS011;17834;52.992;8.856;2023-12-28T06:29:34;8.20;;;3.55;;
31206;SDS011;17834;52.992;8.856;2023-12-28T06:31:59;4.57;;;2.72;;
31206;SDS011;17834;52.992;8.856;2023-12-28T06:34:25;7.78;;;2.83;;
31206;SDS011;17834;52.992;8.856;2023-12-28T06:36:51;7.28;;;2.75;;
31206;SDS011;17834;52.992;8.856;2023-12-28T06:39:17;9.90;;;2.65;;
31206;SDS011;17834;52.992;8.856;2023-12-28T06:41:42;7.20;;;2.72;;
31206;SDS011;17834;52.992;8.856;2023-12-28T06:44:11;6.97;;;2.80;;
31206;SDS011;17834;52.992;8.856;2023-12-28T06:46:38;9.27;;;3.25;;
31206;SDS011;17834;52.992;8.856;2023-12-28T06:49:04;8.88;;;2.47;;
31206;SDS011;17834;52.992;8.856;2023-12-28T06:51:30;5.18;;;2.00;;
31206;SDS011;17834;52.992;8.856;2023-12-28T06:53:56;5.80;;;3.17;;
31206;SDS011;17834;52.992;8.856;2023-12-28T06:56:22;7.45;;;2.67;;
31206;SDS011;17834;52.992;8.856;2023-12-28T06:58:47;6.40;;;2.33;;
31206;SDS011;17834;52.992;8.856;2023-12-28T07:01:13;5.70;;;2.00;;
31206;SDS011;17834;52.992;8.856;2023-12-28T07:03:38;5.82;;;2.28;;
31206;SDS011;17834;52.992;8.856;2023-12-28T07:06:04;9.63;;;2.22;;
31206;SDS011;17834;52.992;8.856;2023-12-28T07:08:30;3.90;;;2.42;;
31206;SDS011;17834;52.992;8.856;2023-12-28T07:10:55;12.45;;;2.50;;
31206;SDS011;17834;52.992;8.856;2023-12-28T07:13:22;6.43;;;2.38;;
31206;SDS011;17834;52.992;8.856;2023-12-28T07:15:47;7.45;;;2.47;;
31206;SDS011;17834;52.992;8.856;2023-12-28T07:18:13;5.57;;;2.10;;
31206;SDS011;17834;52.992;8.856;2023-12-28T07:20:38;6.40;;;2.13;;
31206;SDS011;17834;52.992;8.856;2023-12-28T07:23:04;6.03;;;2.15;;
31206;SDS011;17834;52.992;8.856;2023-12-28T07:25:29;4.15;;;2.05;;
31206;SDS011;17834;52.992;8.856;2023-12-28T07:27:55;8.48;;;2.20;;
31206;SDS011;17834;52.992;8.856;2023-12-28T07:30:20;5.03;;;1.92;;
31206;SDS011;17834;52.992;8.856;2023-12-28T07:32:46;6.43;;;2.08;;
31206;SDS011;17834;52.992;8.856;2023-12-28T07:35:11;10.23;;;2.30;;
31206;SDS011;17834;52.992;8.856;2023-12-28T07:37:37;6.15;;;1.95;;
31206;SDS011;17834;52.992;8.856;2023-12-28T07:40:03;6.07;;;2.20;;
31206;SDS011;17834;52.992;8.856;2023-12-28T07:42:29;7.03;;;1.80;;
31206;SDS011;17834;52.992;8.856;2023-12-28T07:44:55;10.18;;;1.70;;
31206;SDS011;17834;52.992;8.856;2023-12-28T07:47:20;8.15;;;1.63;;
31206;SDS011;17834;52.992;8.856;2023-12-28T07:49:46;7.72;;;2.30;;
31206;SDS011;17834;52.992;8.856;2023-12-28T07:52:11;6.32;;;1.77;;
31206;SDS011;17834;52.992;8.856;2023-12-28T07:54:37;10.38;;;1.70;;
31206;SDS011;17834;52.992;8.856;2023-12-28T07:57:03;9.07;;;1.83;;
31206;SDS011;17834;52.992;8.856;2023-12-28T07:59:28;7.03;;;1.63;;
31206;SDS011;17834;52.992;8.856;2023-12-28T08:01:54;6.72;;;2.20;;
31206;SDS011;17834;52.992;8.856;2023-12-28T08:04:20;5.40;;;2.00;;
31206;SDS011;17834;52.992;8.856;2023-12-28T08:06:46;4.65;;;1.50;;
31206;SDS011;17834;52.992;8.856;2023-12-28T08:09:11;4.68;;;1.73;;
31206;SDS011;17834;52.992;8.856;2023-12-28T08:11:37;12.23;;;1.77;;
31206;SDS011;17834;52.992;8.856;2023-12-28T08:14:03;9.77;;;3.08;;
31206;SDS011;17834;52.992;8.856;2023-12-28T08:16:28;5.90;;;2.42;;
31206;SDS011;17834;52.992;8.856;2023-12-28T08:18:54;6.10;;;1.88;;
31206;SDS011;17834;52.992;8.856;2023-12-28T08:21:19;7.00;;;1.50;;
31206;SDS011;17834;52.992;8.856;2023-12-28T08:23:45;9.18;;;2.00;;
31206;SDS011;17834;52.992;8.856;2023-12-28T08:26:10;6.68;;;2.00;;
31206;SDS011;17834;52.992;8.856;2023-12-28T08:28:36;9.07;;;1.65;;
31206;SDS011;17834;52.992;8.856;2023-12-28T08:31:02;8.52;;;1.70;;
31206;SDS011;17834;52.992;8.856;2023-12-28T08:33:27;6.00;;;1.90;;
31206;SDS011;17834;52.992;8.856;2023-12-28T08:35:53;6.93;;;1.63;;
31206;SDS011;17834;52.992;8.856;2023-12-28T08:38:19;11.50;;;2.80;;
31206;SDS011;17834;52.992;8.856;2023-12-28T08:40:44;6.97;;;1.40;;
31206;SDS011;17834;52.992;8.856;2023-12-28T08:43:10;6.53;;;1.52;;
31206;SDS011;17834;52.992;8.856;2023-12-28T08:45:36;6.10;;;2.83;;
31206;SDS011;17834;52.992;8.856;2023-12-28T08:48:01;7.78;;;2.00;;
31206;SDS011;17834;52.992;8.856;2023-12-28T08:50:27;9.18;;;2.03;;
31206;SDS011;17834;52.992;8.856;2023-12-28T08:52:53;5.68;;;1.85;;
31206;SDS011;17834;52.992;8.856;2023-12-28T08:55:18;7.10;;;1.98;;
31206;SDS011;17834;52.992;8.856;2023-12-28T08:57:44;4.00;;;1.35;;
31206;SDS011;17834;52.992;8.856;2023-12-28T09:00:10;12.98;;;2.20;;
31206;SDS011;17834;52.992;8.856;2023-12-28T09:02:36;5.97;;;1.38;;
31206;SDS011;17834;52.992;8.856;2023-12-28T09:05:02;8.82;;;2.30;;
31206;SDS011;17834;52.992;8.856;2023-12-28T09:07:28;3.65;;;1.50;;
31206;SDS011;17834;52.992;8.856;2023-12-28T09:09:53;5.30;;;1.48;;
31206;SDS011;17834;52.992;8.856;2023-12-28T09:12:19;7.40;;;1.95;;
31206;SDS011;17834;52.992;8.856;2023-12-28T09:14:44;11.73;;;2.05;;
31206;SDS011;17834;52.992;8.856;2023-12-28T09:17:10;3.03;;;1.25;;
31206;SDS011;17834;52.992;8.856;2023-12-28T09:19:36;6.53;;;1.40;;
31206;SDS011;17834;52.992;8.856;2023-12-28T09:22:01;5.22;;;1.50;;
31206;SDS011;17834;52.992;8.856;2023-12-28T09:24:28;4.00;;;1.50;;
31206;SDS011;17834;52.992;8.856;2023-12-28T09:26:53;7.43;;;2.33;;
31206;SDS011;17834;52.992;8.856;2023-12-28T09:29:19;8.27;;;1.85;;
31206;SDS011;17834;52.992;8.856;2023-12-28T09:31:45;12.07;;;1.85;;
31206;SDS011;17834;52.992;8.856;2023-12-28T09:34:11;7.22;;;1.45;;
31206;SDS011;17834;52.992;8.856;2023-12-28T09:36:36;5.35;;;1.50;;
31206;SDS011;17834;52.992;8.856;2023-12-28T09:39:02;7.97;;;1.90;;
31206;SDS011;17834;52.992;8.856;2023-12-28T09:41:29;4.57;;;1.67;;
31206;SDS011;17834;52.992;8.856;2023-12-28T09:44:07;5.00;;;1.65;;
31206;SDS011;17834;52.992;8.856;2023-12-28T09:46:35;5.70;;;1.52;;
31206;SDS011;17834;52.992;8.856;2023-12-28T09:49:01;7.93;;;1.90;;
31206;SDS011;17834;52.992;8.856;2023-12-28T09:51:28;5.43;;;1.83;;
31206;SDS011;17834;52.992;8.856;2023-12-28T09:53:54;9.73;;;2.03;;
31206;SDS011;17834;52.992;8.856;2023-12-28T09:56:21;5.88;;;1.50;;
31206;SDS011;17834;52.992;8.856;2023-12-28T09:58:47;8.38;;;1.38;;
31206;SDS011;17834;52.992;8.856;2023-12-28T10:01:15;6.78;;;1.27;;
31206;SDS011;17834;52.992;8.856;2023-12-28T10:03:42;5.15;;;1.63;;
31206;SDS011;17834;52.992;8.856;2023-12-28T10:06:08;12.75;;;2.17;;
31206;SDS011;17834;52.992;8.856;2023-12-28T10:08:34;9.57;;;1.40;;
31206;SDS011;17834;52.992;8.856;2023-12-28T10:11:01;7.88;;;1.95;;
31206;SDS011;17834;52.992;8.856;2023-12-28T10:13:27;10.73;;;1.90;;
31206;SDS011;17834;52.992;8.856;2023-12-28T10:15:56;12.35;;;1.60;;
31206;SDS011;17834;52.992;8.856;2023-12-28T10:18:22;12.07;;;1.88;;
31206;SDS011;17834;52.992;8.856;2023-12-28T10:20:51;7.35;;;1.83;;
31206;SDS011;17834;52.992;8.856;2023-12-28T10:23:18;7.20;;;2.85;;
31206;SDS011;17834;52.992;8.856;2023-12-28T10:25:45;9.40;;;1.80;;
31206;SDS011;17834;52.992;8.856;2023-12-28T10:28:11;15.65;;;2.58;;
31206;SDS011;17834;52.992;8.856;2023-12-28T10:30:37;7.47;;;1.58;;
31206;SDS011;17834;52.992;8.856;2023-12-28T10:33:05;6.88;;;1.75;;
31206;SDS011;17834;52.992;8.856;2023-12-28T10:35:31;8.00;;;1.88;;
31206;SDS011;17834;52.992;8.856;2023-12-28T10:37:56;5.47;;;1.23;;
31206;SDS011;17834;52.992;8.856;2023-12-28T10:40:25;7.97;;;1.75;;
31206;SDS011;17834;52.992;8.856;2023-12-28T10:42:52;10.65;;;1.90;;
31206;SDS011;17834;52.992;8.856;2023-12-28T10:45:22;6.85;;;1.70;;
31206;SDS011;17834;52.992;8.856;2023-12-28T10:48:33;10.43;;;1.40;;
31206;SDS011;17834;52.992;8.856;2023-12-28T10:50:50;8.45;;;2.22;;
31206;SDS011;17834;52.992;8.856;2023-12-28T10:53:30;12.75;;;2.10;;
31206;SDS011;17834;52.992;8.856;2023-12-28T10:56:25;7.22;;;1.52;;
31206;SDS011;17834;52.992;8.856;2023-12-28T10:59:17;7.43;;;1.80;;
31206;SDS011;17834;52.992;8.856;2023-12-28T11:02:09;13.73;;;2.15;;
31206;SDS011;17834;52.992;8.856;2023-12-28T11:04:48;5.32;;;1.73;;
31206;SDS011;17834;52.992;8.856;2023-12-28T11:07:15;5.72;;;1.45;;
31206;SDS011;17834;52.992;8.856;2023-12-28T11:09:43;10.25;;;2.38;;
31206;SDS011;17834;52.992;8.856;2023-12-28T11:12:09;4.35;;;1.35;;
31206;SDS011;17834;52.992;8.856;2023-12-28T11:14:35;10.57;;;1.50;;
31206;SDS011;17834;52.992;8.856;2023-12-28T11:17:04;8.13;;;1.55;;
31206;SDS011;17834;52.992;8.856;2023-12-28T11:19:30;10.60;;;1.95;;
31206;SDS011;17834;52.992;8.856;2023-12-28T11:21:56;10.75;;;2.50;;
31206;SDS011;17834;52.992;8.856;2023-12-28T11:24:24;11.07;;;2.13;;
31206;SDS011;17834;52.992;8.856;2023-12-28T11:26:53;11.88;;;1.70;;
31206;SDS011;17834;52.992;8.856;2023-12-28T11:29:23;11.55;;;2.05;;
31206;SDS011;17834;52.992;8.856;2023-12-28T11:31:57;7.80;;;1.80;;
31206;SDS011;17834;52.992;8.856;2023-12-28T11:34:32;10.05;;;1.77;;
31206;SDS011;17834;52.992;8.856;2023-12-28T11:37:00;7.97;;;1.10;;
31206;SDS011;17834;52.992;8.856;2023-12-28T11:39:29;12.57;;;2.40;;
31206;SDS011;17834;52.992;8.856;2023-12-28T11:42:05;6.80;;;1.58;;
31206;SDS011;17834;52.992;8.856;2023-12-28T11:44:32;7.78;;;1.73;;
31206;SDS011;17834;52.992;8.856;2023-12-28T11:47:37;6.40;;;2.40;;
31206;SDS011;17834;52.992;8.856;2023-12-28T11:50:05;7.78;;;1.63;;
31206;SDS011;17834;52.992;8.856;2023-12-28T11:52:31;11.85;;;1.60;;
31206;SDS011;17834;52.992;8.856;2023-12-28T11:54:58;11.10;;;1.80;;
31206;SDS011;17834;52.992;8.856;2023-12-28T11:57:24;10.82;;;1.75;;
31206;SDS011;17834;52.992;8.856;2023-12-28T12:02:26;7.00;;;1.52;;
31206;SDS011;17834;52.992;8.856;2023-12-28T12:04:52;9.23;;;1.92;;
31206;SDS011;17834;52.992;8.856;2023-12-28T12:07:19;5.72;;;1.40;;
31206;SDS011;17834;52.992;8.856;2023-12-28T12:09:44;11.65;;;2.53;;
31206;SDS011;17834;52.992;8.856;2023-12-28T12:12:10;4.28;;;1.23;;
31206;SDS011;17834;52.992;8.856;2023-12-28T12:14:35;10.27;;;2.08;;
31206;SDS011;17834;52.992;8.856;2023-12-28T12:17:01;9.65;;;1.70;;
31206;SDS011;17834;52.992;8.856;2023-12-28T12:19:27;12.27;;;1.60;;
31206;SDS011;17834;52.992;8.856;2023-12-28T12:21:54;13.18;;;2.47;;
31206;SDS011;17834;52.992;8.856;2023-12-28T12:24:21;8.88;;;1.65;;
31206;SDS011;17834;52.992;8.856;2023-12-28T12:26:46;10.95;;;1.85;;
31206;SDS011;17834;52.992;8.856;2023-12-28T12:29:12;5.93;;;1.40;;
31206;SDS011;17834;52.992;8.856;2023-12-28T12:31:41;6.60;;;1.60;;
31206;SDS011;17834;52.992;8.856;2023-12-28T12:34:09;10.05;;;1.92;;
31206;SDS011;17834;52.992;8.856;2023-12-28T12:36:35;10.57;;;2.05;;
31206;SDS011;17834;52.992;8.856;2023-12-28T12:39:01;7.32;;;1.60;;
31206;SDS011;17834;52.992;8.856;2023-12-28T12:41:27;8.90;;;1.92;;
31206;SDS011;17834;52.992;8.856;2023-12-28T12:43:52;6.95;;;1.58;;
31206;SDS011;17834;52.992;8.856;2023-12-28T12:46:21;12.48;;;1.75;;
31206;SDS011;17834;52.992;8.856;2023-12-28T12:48:54;5.07;;;1.20;;
31206;SDS011;17834;52.992;8.856;2023-12-28T12:51:21;19.63;;;3.00;;
31206;SDS011;17834;52.992;8.856;2023-12-28T12:53:46;12.13;;;1.85;;
31206;SDS011;17834;52.992;8.856;2023-12-28T12:56:12;10.20;;;2.13;;
31206;SDS011;17834;52.992;8.856;2023-12-28T12:58:38;7.13;;;1.65;;
31206;SDS011;17834;52.992;8.856;2023-12-28T13:01:04;8.77;;;1.63;;
31206;SDS011;17834;52.992;8.856;2023-12-28T13:03:29;12.50;;;2.08;;
31206;SDS011;17834;52.992;8.856;2023-12-28T13:05:55;9.40;;;1.77;;
31206;SDS011;17834;52.992;8.856;2023-12-28T13:08:21;10.30;;;2.05;;
31206;SDS011;17834;52.992;8.856;2023-12-28T13:10:47;7.82;;;1.40;;
31206;SDS011;17834;52.992;8.856;2023-12-28T13:13:14;7.68;;;1.23;;
31206;SDS011;17834;52.992;8.856;2023-12-28T13:15:40;11.75;;;2.22;;
31206;SDS011;17834;52.992;8.856;2023-12-28T13:18:06;6.45;;;1.92;;
31206;SDS011;17834;52.992;8.856;2023-12-28T13:20:31;7.38;;;2.30;;
31206;SDS011;17834;52.992;8.856;2023-12-28T13:22:56;9.45;;;1.70;;
31206;SDS011;17834;52.992;8.856;2023-12-28T13:25:22;7.18;;;1.40;;
31206;SDS011;17834;52.992;8.856;2023-12-28T13:27:47;7.30;;;1.63;;
31206;SDS011;17834;52.992;8.856;2023-12-28T13:30:14;8.13;;;1.30;;
31206;SDS011;17834;52.992;8.856;2023-12-28T13:32:39;11.23;;;2.53;;
31206;SDS011;17834;52.992;8.856;2023-12-28T13:35:05;11.52;;;1.83;;
31206;SDS011;17834;52.992;8.856;2023-12-28T13:37:31;5.50;;;1.15;;
31206;SDS011;17834;52.992;8.856;2023-12-28T13:39:57;5.65;;;1.42;;
31206;SDS011;17834;52.992;8.856;2023-12-28T13:42:22;7.75;;;2.40;;
31206;SDS011;17834;52.992;8.856;2023-12-28T13:44:48;9.05;;;1.48;;
31206;SDS011;17834;52.992;8.856;2023-12-28T13:47:13;11.15;;;2.08;;
31206;SDS011;17834;52.992;8.856;2023-12-28T13:49:39;9.50;;;1.42;;
31206;SDS011;17834;52.992;8.856;2023-12-28T13:52:04;15.55;;;1.85;;
31206;SDS011;17834;52.992;8.856;2023-12-28T13:54:30;6.88;;;1.73;;
31206;SDS011;17834;52.992;8.856;2023-12-28T13:56:56;10.05;;;1.60;;
31206;SDS011;17834;52.992;8.856;2023-12-28T13:59:23;12.07;;;2.25;;
31206;SDS011;17834;52.992;8.856;2023-12-28T14:01:49;13.55;;;1.95;;
31206;SDS011;17834;52.992;8.856;2023-12-28T14:04:15;14.90;;;3.05;;
31206;SDS011;17834;52.992;8.856;2023-12-28T14:06:40;6.40;;;1.83;;
31206;SDS011;17834;52.992;8.856;2023-12-28T14:09:06;10.80;;;1.67;;
31206;SDS011;17834;52.992;8.856;2023-12-28T14:11:31;16.10;;;2.13;;
31206;SDS011;17834;52.992;8.856;2023-12-28T14:13:57;8.05;;;2.13;;
31206;SDS011;17834;52.992;8.856;2023-12-28T14:16:22;11.60;;;2.33;;
31206;SDS011;17834;52.992;8.856;2023-12-28T14:18:48;6.70;;;1.80;;
31206;SDS011;17834;52.992;8.856;2023-12-28T14:21:13;11.48;;;2.17;;
31206;SDS011;17834;52.992;8.856;2023-12-28T14:23:40;13.85;;;2.28;;
31206;SDS011;17834;52.992;8.856;2023-12-28T14:26:09;11.70;;;2.47;;
31206;SDS011;17834;52.992;8.856;2023-12-28T14:28:40;14.90;;;1.75;;
31206;SDS011;17834;52.992;8.856;2023-12-28T14:31:07;6.95;;;1.60;;
31206;SDS011;17834;52.992;8.856;2023-12-28T14:33:34;8.30;;;1.58;;
31206;SDS011;17834;52.992;8.856;2023-12-28T14:36:00;11.85;;;2.25;;
31206;SDS011;17834;52.992;8.856;2023-12-28T14:38:27;9.85;;;1.75;;
31206;SDS011;17834;52.992;8.856;2023-12-28T14:40:53;12.30;;;2.90;;
31206;SDS011;17834;52.992;8.856;2023-12-28T14:43:19;11.75;;;1.85;;
31206;SDS011;17834;52.992;8.856;2023-12-28T14:45:45;8.00;;;1.65;;
31206;SDS011;17834;52.992;8.856;2023-12-28T14:48:12;8.38;;;1.80;;